ADDS METAR Data INFO
IDs: Format: Raw Decoded Include TAF

Data at: 1523 UTC 18 Jun 2018

PAVL 181453Z AUTO 02004KT 10SM CLR 08/05 A2971 RMK AO2 SLP062 T00830050 50002 TSNO
PAVL 181353Z AUTO 05004KT 10SM CLR 06/03 A2972 RMK AO2 SLP063 T00610033 TSNO
PAVL 181253Z AUTO 08003KT 10SM CLR 05/04 A2972 RMK AO2 SLP063 T00500039 TSNO
PAVL 181153Z AUTO 08005KT 10SM CLR 06/04 A2971 RMK AO2 SLP060 T00610039 10106 20061 50002 TSNO
PAVL 181053Z AUTO 12003KT 9SM CLR 08/04 A2971 RMK AO2 SLP061 T00780039 TSNO
PAVL 180953Z AUTO 24007KT 9SM CLR 07/04 A2971 RMK AO2 SLP060 T00720039 TSNO
PAVL 180853Z AUTO 24006KT 10SM CLR 07/04 A2970 RMK AO2 SLP058 T00720039 401440039 53006 TSNO
PAVL 180753Z AUTO 23008KT 10SM CLR 07/04 A2970 RMK AO2 SLP056 T00720039 TSNO
PAVL 180653Z AUTO 22006KT 8SM CLR 08/04 A2969 RMK AO2 SLP053 T00780044 TSNO
PAVL 180553Z AUTO 27004KT 10SM CLR 11/03 A2969 RMK AO2 SLP052 T01110028 10139 20089 55001 TSNO
PAVL 180453Z AUTO 30008KT 10SM CLR 13/01 A2968 RMK AO2 SLP052 T01280011 TSNO
PAVL 180353Z AUTO 31009KT 10SM CLR 11/03 A2969 RMK AO2 SLP052 T01110028 TSNO
PAVL 180253Z AUTO 29007KT 10SM CLR 09/03 A2969 RMK AO2 SLP054 T00890033 57002 TSNO
PAVL 180153Z AUTO 29008KT 10SM CLR 10/03 A2969 RMK AO2 SLP054 T01000033 TSNO
PAVL 180053Z AUTO 27008KT 10SM CLR 10/03 A2969 RMK AO2 SLP055 T01000033 TSNO
PAVL 172353Z AUTO 28010KT 10SM CLR 10/03 A2969 RMK AO2 SLP055 T01000028 10144 20094 53001 TSNO
PAVL 172253Z AUTO 28011KT 10SM CLR 10/02 A2969 RMK AO2 SLP053 T01000022 TSNO
PAVL 172153Z AUTO 29011KT 10SM CLR 10/02 A2969 RMK AO2 SLP053 T01000022 TSNO
PAVL 172053Z AUTO 08003KT 10SM CLR 14/00 A2969 RMK AO2 SLP054 T01390000 57006 TSNO
PAVL 171953Z AUTO 05008KT 10SM CLR 13/01 A2969 RMK AO2 SLP055 T01280006 TSNO
PAVL 171853Z AUTO 03008KT 10SM CLR 11/00 A2970 RMK AO2 SLP058 T01110000 TSNO
PAVL 171753Z AUTO 05010KT 10SM CLR 10/01 A2971 RMK AO2 SLP060 T01000006 10100 20039 56005 TSNO
PAVL 171653Z AUTO 02013KT 10SM CLR 08/01 A2971 RMK AO2 SLP061 T00830011 TSNO
PAVL 171553Z AUTO 02013KT 10SM CLR 07/01 A2972 RMK AO2 SLP063 T00670011 TSNO
PAVL 171453Z AUTO 04013KT 10SM CLR 06/01 A2972 RMK AO2 SLP065 T00610006 56006 TSNO
PAVL 171353Z AUTO 03009KT 10SM CLR 04/00 A2973 RMK AO2 SLP066 T00440000 TSNO
PAVL 171253Z AUTO 03011KT 10SM CLR 04/00 A2973 RMK AO2 SLP068 T00390000 TSNO
PAVL 171153Z AUTO 03016KT 10SM CLR 05/01 A2974 RMK AO2 SLP070 T00500006 10122 20050 58003 TSNO
PAVL 171053Z AUTO 03013KT 10SM CLR 06/01 A2975 RMK AO2 SLP073 T00560011 TSNO
PAVL 170853Z AUTO 02015KT 10SM CLR 08/02 A2975 RMK AO2 SLP074 T00830022 401330022 51004 TSNO
PAVL 170653Z AUTO 02019KT 10SM CLR 11/02 A2974 RMK AO2 SLP071 T01110022 TSNO
PAVL 170553Z AUTO 02019KT 10SM CLR 12/03 A2974 RMK AO2 PK WND 01026/0531 SLP070 T01220028 10133 20111 56006 TSNO
PAVL 170453Z AUTO 03017G22KT 10SM CLR 13/02 A2974 RMK AO2 SLP070 T01280017 TSNO
PAVL 170353Z AUTO 03011G15KT 10SM SCT055 13/01 A2974 RMK AO2 SLP072 T01330011 TSNO